Погода Лубангона неделю

Уила, Ангола

05 - 11 марта
  • 05марта
    Сегодня
    +14°
    +27°
    Небольшая облачность
    ВремяПогодаТемператураВлажностьДавлениеВетер, м/сВероятность осадков
    01:00Ясно и безоблачно+16°C94 %624 мм1.6 м/с5 %
    04:00Ясно и безоблачно+15°C92 %624 мм1.8 м/с2 %
    07:00Ясно и безоблачно+17°C82 %625 мм2.0 м/с4 %
    10:00Практически безоблачно+25°C52 %628 мм2.6 м/с4 %
    13:00Небольшая облачность+27°C47 %628 мм2.9 м/с34 %
    16:00Практически безоблачно+24°C49 %626 мм3.7 м/с47 %
    19:00Ясно и безоблачно+21°C74 %626 мм2.7 м/с28 %
    22:00Ясно и безоблачно+19°C68 %626 мм1.6 м/с5 %
  • 06марта
    Среда
    +14°
    +28°
    Облачно с прояснениями
    ВремяПогодаТемператураВлажностьДавлениеВетер, м/сВероятность осадков
    01:00Ясно и безоблачно+16°C74 %624 мм1.6 м/с4 %
    04:00Практически безоблачно+15°C82 %624 мм1.6 м/с4 %
    07:00Ясно и безоблачно+18°C71 %626 мм1.7 м/с5 %
    10:00Небольшая облачность+25°C44 %629 мм2.7 м/с5 %
    13:00Облачно с прояснениями+28°C39 %629 мм2.7 м/с17 %
    16:00Небольшая облачность и лёгкий дождик+25°C47 %627 мм2.8 м/с61 %
    19:00Ясно и безоблачно+21°C71 %626 мм2.5 м/с49 %
    22:00Практически безоблачно+18°C71 %626 мм1.7 м/с12 %
  • 07марта
    Четверг
    +14°
    +28°
    Практически безоблачно
    ВремяПогодаТемператураВлажностьДавлениеВетер, м/сВероятность осадков
    01:00Ясно и безоблачно+16°C64 %624 мм1.8 м/с4 %
    04:00Ясно и безоблачно+16°C47 %624 мм2.1 м/с5 %
    07:00Практически безоблачно+17°C45 %626 мм2.3 м/с4 %
    10:00Облачно с прояснениями+25°C30 %629 мм3.4 м/с5 %
    13:00Практически безоблачно+28°C31 %628 мм3.4 м/с4 %
    16:00Ясно и безоблачно+26°C34 %626 мм3.8 м/с28 %
    19:00Ясно и безоблачно+20°C64 %625 мм2.8 м/с16 %
    22:00Небольшая облачность+19°C55 %625 мм2.0 м/с3 %
  • 08марта
    Пятница
    +15°
    +28°
    Практически безоблачно
    ВремяПогодаТемператураВлажностьДавлениеВетер, м/сВероятность осадков
    01:00Небольшая облачность+17°C53 %623 мм1.7 м/с5 %
    04:00Практически безоблачно+15°C63 %623 мм1.8 м/с5 %
    07:00Небольшая облачность+18°C59 %625 мм1.9 м/с5 %
    10:00Ясно и безоблачно+25°C31 %628 мм3.3 м/с5 %
    13:00Практически безоблачно+28°C28 %628 мм3.4 м/с3 %
    16:00Практически безоблачно+27°C30 %626 мм3.4 м/с13 %
    19:00Облачно с прояснениями+21°C68 %625 мм2.7 м/с20 %
    22:00Небольшая облачность+18°C85 %626 мм1.6 м/с12 %
Мы используем cookies
Соглашаюсь